createdAt,value
2023-05-21T00:00:28.951Z,20.00
2023-05-21T00:01:31.144Z,20.00
2023-05-21T00:02:34.459Z,20.00
2023-05-21T00:03:36.646Z,20.00
2023-05-21T00:04:40.662Z,20.00
2023-05-21T00:05:43.551Z,20.00
2023-05-21T00:06:45.783Z,20.10
2023-05-21T00:07:48.420Z,19.90
2023-05-21T00:08:50.289Z,19.90
2023-05-21T00:09:53.069Z,19.90
2023-05-21T00:10:55.096Z,19.90
2023-05-21T00:11:56.970Z,19.80
2023-05-21T00:12:58.678Z,19.80
2023-05-21T00:14:00.560Z,19.80
2023-05-21T00:15:02.503Z,19.80
2023-05-21T00:16:04.501Z,19.70
2023-05-21T00:17:06.513Z,19.70
2023-05-21T00:18:08.356Z,19.80
2023-05-21T00:19:10.657Z,19.90
2023-05-21T00:20:13.284Z,19.80
2023-05-21T00:21:19.498Z,19.80
2023-05-21T00:22:21.258Z,19.80
2023-05-21T00:23:23.087Z,19.80
2023-05-21T00:24:24.754Z,19.80
2023-05-21T00:25:26.545Z,19.80
2023-05-21T00:26:28.275Z,19.90
2023-05-21T00:27:30.077Z,19.80
2023-05-21T00:28:31.912Z,19.80
2023-05-21T00:29:33.606Z,19.80
2023-05-21T00:30:35.825Z,19.80
2023-05-21T00:31:37.522Z,19.70
2023-05-21T00:32:40.636Z,19.80
2023-05-21T00:33:42.794Z,19.70
2023-05-21T00:34:44.993Z,19.70
2023-05-21T00:35:46.885Z,19.70
2023-05-21T00:36:48.584Z,19.70
2023-05-21T00:37:50.327Z,19.70
2023-05-21T00:38:52.337Z,19.70
2023-05-21T00:39:58.118Z,19.70
2023-05-21T00:41:03.278Z,19.70
2023-05-21T00:42:05.521Z,19.70
2023-05-21T00:43:10.276Z,19.70
2023-05-21T00:44:14.300Z,19.70
2023-05-21T00:45:16.260Z,19.70
2023-05-21T00:46:21.154Z,19.70
2023-05-21T00:47:23.133Z,19.70
2023-05-21T00:48:24.955Z,19.70
2023-05-21T00:49:26.722Z,19.60
2023-05-21T00:50:30.342Z,19.60
2023-05-21T00:51:32.825Z,19.60
2023-05-21T00:52:41.747Z,19.60
2023-05-21T00:53:45.120Z,19.60
2023-05-21T00:54:49.288Z,19.60
2023-05-21T00:55:51.640Z,19.60
2023-05-21T00:56:54.792Z,19.70
2023-05-21T00:57:56.725Z,19.60
2023-05-21T00:58:59.384Z,19.50
2023-05-21T01:00:01.322Z,19.60
2023-05-21T01:01:03.645Z,19.70
2023-05-21T01:02:06.808Z,19.50
2023-05-21T01:03:09.340Z,19.50
2023-05-21T01:04:12.389Z,19.50
2023-05-21T01:05:15.632Z,19.50
2023-05-21T01:06:17.713Z,19.50
2023-05-21T01:07:19.449Z,19.50
2023-05-21T01:08:21.902Z,19.50
2023-05-21T01:09:23.646Z,19.50
2023-05-21T01:10:27.298Z,19.50
2023-05-21T01:11:40.783Z,19.50
2023-05-21T01:12:44.541Z,19.50
2023-05-21T01:13:47.371Z,19.40
2023-05-21T01:14:49.973Z,19.40
2023-05-21T01:15:53.715Z,19.40
2023-05-21T01:16:55.624Z,19.40
2023-05-21T01:17:57.562Z,19.40
2023-05-21T01:18:59.730Z,19.40
2023-05-21T01:20:02.099Z,19.30
2023-05-21T01:21:07.177Z,19.40
2023-05-21T01:22:09.845Z,19.40
2023-05-21T01:23:12.228Z,19.30
2023-05-21T01:24:15.872Z,19.40
2023-05-21T01:25:17.628Z,19.40
2023-05-21T01:26:19.393Z,19.30
2023-05-21T01:27:21.495Z,19.30
2023-05-21T01:28:23.379Z,19.30
2023-05-21T01:29:25.535Z,19.30
2023-05-21T01:30:27.657Z,19.30
2023-05-21T01:31:53.830Z,19.30
2023-05-21T01:33:04.028Z,19.30
2023-05-21T01:34:09.413Z,19.20
2023-05-21T01:35:15.093Z,19.30
2023-05-21T01:36:26.350Z,19.40
2023-05-21T01:37:41.583Z,19.20
2023-05-21T01:38:53.698Z,19.20
2023-05-21T01:40:31.865Z,19.20
2023-05-21T01:41:38.351Z,19.20
2023-05-21T01:42:44.621Z,19.20
2023-05-21T01:43:48.154Z,19.20
2023-05-21T01:44:55.053Z,19.20
2023-05-21T01:45:58.989Z,19.20
2023-05-21T01:47:02.418Z,19.20
2023-05-21T01:48:06.446Z,19.20
2023-05-21T01:49:09.375Z,19.10
2023-05-21T01:50:12.910Z,19.20
2023-05-21T01:51:15.638Z,19.10
2023-05-21T01:52:17.746Z,19.10
2023-05-21T01:53:19.625Z,19.10
2023-05-21T01:54:22.099Z,19.10
2023-05-21T01:55:24.815Z,19.10
2023-05-21T01:56:28.633Z,19.10
2023-05-21T01:57:30.433Z,19.10
2023-05-21T01:58:32.350Z,19.10
2023-05-21T01:59:34.615Z,19.10
2023-05-21T02:00:37.545Z,19.10
2023-05-21T02:01:39.354Z,19.10
2023-05-21T02:02:41.146Z,19.10
2023-05-21T02:03:45.281Z,19.00
2023-05-21T02:04:47.938Z,19.00
2023-05-21T02:05:52.226Z,19.00
2023-05-21T02:06:54.994Z,19.00
2023-05-21T02:07:57.357Z,19.00
2023-05-21T02:09:00.005Z,19.10
2023-05-21T02:10:01.730Z,19.00
2023-05-21T02:11:03.427Z,19.10
2023-05-21T02:12:06.543Z,19.00
2023-05-21T02:13:08.380Z,19.00
2023-05-21T02:14:10.467Z,19.00
2023-05-21T02:15:14.330Z,18.90
2023-05-21T02:16:16.253Z,18.90
2023-05-21T02:17:18.583Z,18.90
2023-05-21T02:18:21.435Z,18.90
2023-05-21T02:19:23.271Z,18.90
2023-05-21T02:20:25.341Z,18.90
2023-05-21T02:21:27.307Z,18.90
2023-05-21T02:22:29.053Z,18.80
2023-05-21T02:23:30.897Z,18.90
2023-05-21T02:24:32.654Z,18.90
2023-05-21T02:25:34.627Z,18.90
2023-05-21T02:26:37.335Z,18.80
2023-05-21T02:27:40.724Z,18.80
2023-05-21T02:28:42.448Z,18.90
2023-05-21T02:29:44.134Z,18.80
2023-05-21T02:30:46.108Z,18.80
2023-05-21T02:31:48.234Z,18.80
2023-05-21T02:32:50.919Z,18.80
2023-05-21T02:33:52.738Z,18.80
2023-05-21T02:34:54.463Z,18.80
2023-05-21T02:35:56.204Z,18.80
2023-05-21T02:36:58.918Z,18.80
2023-05-21T02:38:02.953Z,18.80
2023-05-21T02:39:05.045Z,18.80
2023-05-21T02:40:07.934Z,18.80
2023-05-21T02:41:12.888Z,18.80
2023-05-21T02:42:16.940Z,18.80
2023-05-21T02:43:18.987Z,18.80
2023-05-21T02:44:21.085Z,18.80
2023-05-21T02:45:22.906Z,18.80
2023-05-21T02:46:24.786Z,18.80
2023-05-21T02:47:26.665Z,18.80
2023-05-21T02:48:28.407Z,18.70
2023-05-21T02:49:30.105Z,18.80
2023-05-21T02:50:31.864Z,18.80
2023-05-21T02:51:33.705Z,18.70
2023-05-21T02:52:35.592Z,18.80
2023-05-21T02:53:37.300Z,18.80
2023-05-21T02:54:39.435Z,18.70
2023-05-21T02:55:42.084Z,18.80
2023-05-21T02:56:43.823Z,18.80
2023-05-21T02:57:45.795Z,18.70
2023-05-21T02:58:47.554Z,18.80
2023-05-21T02:59:49.374Z,18.70
2023-05-21T03:00:52.620Z,18.70
2023-05-21T03:01:54.375Z,18.70
2023-05-21T03:02:56.681Z,18.70
2023-05-21T03:03:58.484Z,18.70
2023-05-21T03:05:00.984Z,18.70
2023-05-21T03:06:02.889Z,18.70
2023-05-21T03:07:05.529Z,18.60
2023-05-21T03:08:07.630Z,18.60
2023-05-21T03:09:09.814Z,18.60
2023-05-21T03:10:11.623Z,18.60
2023-05-21T03:11:13.389Z,18.60
2023-05-21T03:12:15.167Z,18.60
2023-05-21T03:13:17.124Z,18.60
2023-05-21T03:14:18.883Z,18.60
2023-05-21T03:15:23.963Z,18.60
2023-05-21T03:16:25.941Z,18.60
2023-05-21T03:17:27.750Z,18.50
2023-05-21T03:18:29.517Z,18.50
2023-05-21T03:19:35.920Z,18.50
2023-05-21T03:20:43.537Z,18.50
2023-05-21T03:21:46.878Z,18.40
2023-05-21T03:22:49.914Z,18.40
2023-05-21T03:23:53.000Z,18.40
2023-05-21T03:24:54.713Z,18.40
2023-05-21T03:25:56.415Z,18.40
2023-05-21T03:26:59.124Z,18.40
2023-05-21T03:28:00.902Z,18.40
2023-05-21T03:29:02.633Z,18.40
2023-05-21T03:30:06.637Z,18.40
2023-05-21T03:31:08.725Z,18.40
2023-05-21T03:32:10.857Z,18.40
2023-05-21T03:33:14.196Z,18.40
2023-05-21T03:34:16.705Z,18.40
2023-05-21T03:35:18.530Z,18.40
2023-05-21T03:36:21.012Z,18.40
2023-05-21T03:37:24.246Z,18.40
2023-05-21T03:38:26.578Z,18.40
2023-05-21T03:39:28.417Z,18.40
2023-05-21T03:40:30.162Z,18.30
2023-05-21T03:41:32.089Z,18.40
2023-05-21T03:42:33.981Z,18.30
2023-05-21T03:43:35.866Z,18.30
2023-05-21T03:44:37.630Z,18.40
2023-05-21T03:45:40.824Z,18.30
2023-05-21T03:46:45.464Z,18.30
2023-05-21T03:47:48.908Z,18.40
2023-05-21T03:48:50.907Z,18.30
2023-05-21T03:49:52.686Z,18.30
2023-05-21T03:50:54.455Z,18.30
2023-05-21T03:51:56.182Z,18.30
2023-05-21T03:52:58.145Z,18.40
2023-05-21T03:54:00.257Z,18.40
2023-05-21T03:55:02.082Z,18.30
2023-05-21T03:56:03.938Z,18.30
2023-05-21T03:57:06.185Z,18.30
2023-05-21T03:58:08.046Z,18.30
2023-05-21T03:59:09.848Z,18.30
2023-05-21T04:00:11.987Z,18.30
2023-05-21T04:01:13.821Z,18.30
2023-05-21T04:02:15.947Z,18.30
2023-05-21T04:03:18.176Z,18.30
2023-05-21T04:04:20.051Z,18.30
2023-05-21T04:05:21.960Z,18.30
2023-05-21T04:06:23.665Z,18.30
2023-05-21T04:07:25.354Z,18.30
2023-05-21T04:08:27.351Z,18.30
2023-05-21T04:09:29.086Z,18.30
2023-05-21T04:10:30.940Z,18.20
2023-05-21T04:11:32.734Z,18.20
2023-05-21T04:12:34.472Z,18.20
2023-05-21T04:13:36.314Z,18.20
2023-05-21T04:14:38.257Z,18.20
2023-05-21T04:15:40.214Z,18.20
2023-05-21T04:16:44.181Z,18.20
2023-05-21T04:17:46.406Z,18.20
2023-05-21T04:18:48.486Z,18.20
2023-05-21T04:19:50.304Z,18.20
2023-05-21T04:20:52.100Z,18.20
2023-05-21T04:21:53.826Z,18.30
2023-05-21T04:22:55.597Z,18.30
2023-05-21T04:23:57.613Z,18.20
2023-05-21T04:25:00.093Z,18.20
2023-05-21T04:26:01.907Z,18.20
2023-05-21T04:27:03.984Z,18.20
2023-05-21T04:28:05.782Z,18.20
2023-05-21T04:29:08.032Z,18.20
2023-05-21T04:30:11.305Z,18.20
2023-05-21T04:31:13.964Z,18.20
2023-05-21T04:32:18.004Z,18.20
2023-05-21T04:33:20.298Z,18.20
2023-05-21T04:34:22.148Z,18.20
2023-05-21T04:35:23.919Z,18.20
2023-05-21T04:36:25.617Z,18.20
2023-05-21T04:37:28.111Z,18.30
2023-05-21T04:38:30.210Z,18.20
2023-05-21T04:39:34.681Z,18.20
2023-05-21T04:40:36.861Z,18.20
2023-05-21T04:41:39.533Z,18.20
2023-05-21T04:42:41.252Z,18.20
2023-05-21T04:43:44.222Z,18.20
2023-05-21T04:44:45.989Z,18.20
2023-05-21T04:45:47.776Z,18.20
2023-05-21T04:46:50.844Z,18.20
2023-05-21T04:47:52.733Z,18.20
2023-05-21T04:48:58.155Z,18.20
2023-05-21T04:49:59.958Z,18.20
2023-05-21T04:51:01.721Z,18.20
2023-05-21T04:52:03.926Z,18.20
2023-05-21T04:53:05.735Z,18.20
2023-05-21T04:54:07.771Z,18.20
2023-05-21T04:55:09.742Z,18.20
2023-05-21T04:56:11.515Z,18.20
2023-05-21T04:57:13.381Z,18.20
2023-05-21T04:58:18.906Z,18.20
2023-05-21T04:59:21.113Z,18.20
2023-05-21T05:00:22.882Z,18.20
2023-05-21T05:01:27.248Z,18.20
2023-05-21T05:02:29.148Z,18.30
2023-05-21T05:03:30.915Z,18.30
2023-05-21T05:04:32.609Z,18.30
2023-05-21T05:05:34.476Z,18.30
2023-05-21T05:06:36.407Z,18.30
2023-05-21T05:07:38.091Z,18.30
2023-05-21T05:08:40.187Z,18.30
2023-05-21T05:09:41.962Z,18.30
2023-05-21T05:10:43.910Z,18.30
2023-05-21T05:11:45.595Z,18.30
2023-05-21T05:12:48.205Z,18.20
2023-05-21T05:13:50.160Z,18.30
2023-05-21T05:14:51.937Z,18.30
2023-05-21T05:16:59.860Z,18.30
2023-05-21T05:18:01.999Z,18.30
2023-05-21T05:19:03.906Z,18.30
2023-05-21T05:20:07.985Z,18.30
2023-05-21T05:21:09.729Z,18.30
2023-05-21T05:22:13.402Z,18.30
2023-05-21T05:23:15.576Z,18.30
2023-05-21T05:24:17.396Z,18.30
2023-05-21T05:25:19.529Z,18.40
2023-05-21T05:26:21.664Z,18.40
2023-05-21T05:27:23.400Z,18.40
2023-05-21T05:28:25.116Z,18.40
2023-05-21T05:29:27.123Z,18.50
2023-05-21T05:30:28.852Z,18.40
2023-05-21T05:31:30.968Z,18.40
2023-05-21T05:32:32.861Z,18.40
2023-05-21T05:33:34.687Z,18.40
2023-05-21T05:34:37.270Z,18.40
2023-05-21T05:35:39.151Z,18.50
2023-05-21T05:36:40.899Z,18.40
2023-05-21T05:37:42.604Z,18.40
2023-05-21T05:38:44.371Z,18.50
2023-05-21T05:39:46.361Z,18.50
2023-05-21T05:40:48.244Z,18.50
2023-05-21T05:41:49.952Z,18.60
2023-05-21T05:42:52.766Z,18.50
2023-05-21T05:43:55.483Z,18.50
2023-05-21T05:44:57.264Z,18.60
2023-05-21T05:45:59.269Z,18.60
2023-05-21T05:47:01.037Z,18.70
2023-05-21T05:48:02.942Z,18.60
2023-05-21T05:49:04.747Z,18.60
2023-05-21T05:50:07.049Z,18.60
2023-05-21T05:51:09.466Z,18.60
2023-05-21T05:52:11.272Z,18.60
2023-05-21T05:53:14.628Z,18.60
2023-05-21T05:54:16.504Z,18.70
2023-05-21T05:55:18.435Z,18.70
2023-05-21T05:56:20.278Z,18.70
2023-05-21T05:57:22.092Z,18.70
2023-05-21T05:58:23.844Z,18.70
2023-05-21T05:59:25.602Z,18.80
2023-05-21T06:00:27.685Z,18.80
2023-05-21T06:01:29.624Z,18.80
2023-05-21T06:02:31.584Z,18.90
2023-05-21T06:03:33.429Z,18.90
2023-05-21T06:04:35.486Z,18.90
2023-05-21T06:05:37.350Z,18.90
2023-05-21T06:06:39.356Z,19.00
2023-05-21T06:07:41.443Z,19.00
2023-05-21T06:08:43.270Z,19.00
2023-05-21T06:09:44.957Z,19.00
2023-05-21T06:10:46.823Z,19.10
2023-05-21T06:11:48.880Z,19.00
2023-05-21T06:12:50.590Z,19.10
2023-05-21T06:13:52.566Z,19.20
2023-05-21T06:14:54.446Z,19.10
2023-05-21T06:15:56.377Z,19.10
2023-05-21T06:16:58.133Z,19.30
2023-05-21T06:17:59.879Z,19.20
2023-05-21T06:19:01.748Z,19.20
2023-05-21T06:20:04.545Z,19.20
2023-05-21T06:21:06.416Z,19.20
2023-05-21T06:22:08.259Z,19.20
2023-05-21T06:23:10.078Z,19.20
2023-05-21T06:24:11.756Z,19.30
2023-05-21T06:25:13.526Z,19.30
2023-05-21T06:26:15.639Z,19.30
2023-05-21T06:27:18.752Z,19.30
2023-05-21T06:28:20.481Z,19.30
2023-05-21T06:29:23.190Z,19.30
2023-05-21T06:30:24.871Z,19.30
2023-05-21T06:31:26.648Z,19.30
2023-05-21T06:32:28.453Z,19.50
2023-05-21T06:33:30.322Z,19.30
2023-05-21T06:34:32.239Z,19.40
2023-05-21T06:35:37.245Z,19.40
2023-05-21T06:36:39.267Z,19.40
2023-05-21T06:37:41.147Z,19.40
2023-05-21T06:38:43.358Z,19.40
2023-05-21T06:39:45.172Z,19.40
2023-05-21T06:40:48.026Z,19.50
2023-05-21T06:41:51.483Z,19.50
2023-05-21T06:42:53.484Z,19.50
2023-05-21T06:43:55.316Z,19.60
2023-05-21T06:44:58.998Z,19.50
2023-05-21T06:46:01.606Z,19.60
2023-05-21T06:47:03.477Z,19.60
2023-05-21T06:48:05.538Z,19.70
2023-05-21T06:49:07.929Z,19.70
2023-05-21T06:50:09.984Z,19.70
2023-05-21T06:51:12.226Z,19.70
2023-05-21T06:52:13.988Z,19.90
2023-05-21T06:53:16.478Z,19.80
2023-05-21T06:54:18.365Z,19.80
2023-05-21T06:55:20.180Z,19.80
2023-05-21T06:56:22.078Z,19.80
2023-05-21T06:57:23.759Z,19.80
2023-05-21T06:58:25.905Z,19.80
2023-05-21T06:59:27.587Z,19.90
2023-05-21T07:00:29.283Z,19.80
2023-05-21T07:01:31.041Z,19.90
2023-05-21T07:02:32.841Z,19.90
2023-05-21T07:03:35.961Z,19.90
2023-05-21T07:04:37.742Z,20.00
2023-05-21T07:05:39.867Z,20.00
2023-05-21T07:06:41.843Z,20.00
2023-05-21T07:07:43.576Z,20.00
2023-05-21T07:08:45.689Z,20.00
2023-05-21T07:09:47.540Z,20.20
2023-05-21T07:10:50.017Z,20.00
2023-05-21T07:11:53.086Z,20.00
2023-05-21T07:12:54.893Z,20.10
2023-05-21T07:14:00.369Z,20.10
2023-05-21T07:15:02.147Z,20.10
2023-05-21T07:16:04.021Z,20.20
2023-05-21T07:17:06.033Z,20.20
2023-05-21T07:18:08.055Z,20.20
2023-05-21T07:19:09.989Z,20.20
2023-05-21T07:20:12.626Z,20.20
2023-05-21T07:21:14.518Z,20.20
2023-05-21T07:22:16.229Z,20.20
2023-05-21T07:23:18.019Z,20.30
2023-05-21T07:24:19.749Z,20.40
2023-05-21T07:25:21.573Z,20.30
2023-05-21T07:26:23.342Z,20.40
2023-05-21T07:27:26.208Z,20.30
2023-05-21T07:28:28.232Z,20.40
2023-05-21T07:29:29.988Z,20.40
2023-05-21T07:30:31.680Z,20.40
2023-05-21T07:31:33.711Z,20.40
2023-05-21T07:32:35.855Z,20.40
2023-05-21T07:33:37.901Z,20.50
2023-05-21T07:34:39.673Z,20.40
2023-05-21T07:35:41.352Z,20.40
2023-05-21T07:36:43.042Z,20.60
2023-05-21T07:37:44.867Z,20.50
2023-05-21T07:38:46.577Z,20.50
2023-05-21T07:39:48.405Z,20.50
2023-05-21T07:40:50.136Z,20.50
2023-05-21T07:41:51.932Z,20.60
2023-05-21T07:42:54.017Z,20.60
2023-05-21T07:43:55.899Z,20.60
2023-05-21T07:44:57.784Z,20.60
2023-05-21T07:45:59.555Z,20.60
2023-05-21T07:47:01.261Z,20.60
2023-05-21T07:48:03.195Z,20.60
2023-05-21T07:49:05.094Z,20.60
2023-05-21T07:50:07.231Z,20.70
2023-05-21T07:51:09.320Z,20.70
2023-05-21T07:52:11.260Z,20.70
2023-05-21T07:53:13.073Z,20.70
2023-05-21T07:54:14.958Z,20.90
2023-05-21T07:55:16.697Z,21.00
2023-05-21T07:56:18.541Z,20.90
2023-05-21T07:57:20.319Z,20.90
2023-05-21T07:58:23.397Z,21.00
2023-05-21T07:59:26.308Z,21.10
2023-05-21T08:00:28.127Z,21.20
2023-05-21T08:01:30.063Z,21.10
2023-05-21T08:02:31.864Z,21.20
2023-05-21T08:03:33.868Z,21.40
2023-05-21T08:04:37.444Z,21.30
2023-05-21T08:05:40.371Z,21.40
2023-05-21T08:06:42.145Z,21.50
2023-05-21T08:07:43.943Z,21.60
2023-05-21T08:08:45.871Z,21.60
2023-05-21T08:09:47.860Z,21.70
2023-05-21T08:10:49.875Z,21.70
2023-05-21T08:11:51.684Z,21.70
2023-05-21T08:12:53.422Z,21.80
2023-05-21T08:13:55.578Z,21.80
2023-05-21T08:15:00.163Z,21.70
2023-05-21T08:16:01.939Z,21.70
2023-05-21T08:17:03.898Z,21.70
2023-05-21T08:18:06.107Z,21.70
2023-05-21T08:19:07.870Z,21.70
2023-05-21T08:20:10.415Z,21.70
2023-05-21T08:21:12.360Z,21.80
2023-05-21T08:22:14.225Z,21.80
2023-05-21T08:23:16.266Z,21.80
2023-05-21T08:24:18.016Z,22.00
2023-05-21T08:25:20.024Z,22.10
2023-05-21T08:26:22.003Z,22.00
2023-05-21T08:27:23.765Z,22.00
2023-05-21T08:28:27.261Z,22.00
2023-05-21T08:29:29.337Z,22.00
2023-05-21T08:30:31.374Z,22.00
2023-05-21T08:31:33.141Z,22.10
2023-05-21T08:32:34.926Z,22.30
2023-05-21T08:33:39.771Z,22.10
2023-05-21T08:34:41.575Z,22.10
2023-05-21T08:35:43.295Z,22.10
2023-05-21T08:36:46.217Z,22.10
2023-05-21T08:37:47.953Z,22.20
2023-05-21T08:38:49.725Z,22.30
2023-05-21T08:39:51.593Z,22.30
2023-05-21T08:40:55.010Z,22.30
2023-05-21T08:42:06.713Z,22.40
2023-05-21T08:43:13.791Z,22.50
2023-05-21T08:44:20.421Z,22.50
2023-05-21T08:45:23.497Z,22.50
2023-05-21T08:46:28.966Z,22.50
2023-05-21T08:47:34.373Z,22.60
2023-05-21T08:48:37.827Z,22.50
2023-05-21T08:49:39.731Z,22.50
2023-05-21T08:50:41.677Z,22.50
2023-05-21T08:51:45.058Z,22.50
2023-05-21T08:52:47.346Z,22.50
2023-05-21T08:53:51.062Z,22.50
2023-05-21T08:54:56.757Z,22.50
2023-05-21T08:55:58.699Z,22.60
2023-05-21T08:57:02.310Z,22.50
2023-05-21T08:58:04.916Z,22.50
2023-05-21T08:59:07.919Z,22.60
2023-05-21T09:00:11.287Z,22.60
2023-05-21T09:01:14.192Z,22.50
2023-05-21T09:02:18.370Z,22.50
2023-05-21T09:03:22.362Z,22.50
2023-05-21T09:04:24.975Z,22.50
2023-05-21T09:05:28.340Z,22.60
2023-05-21T09:06:34.326Z,22.60
2023-05-21T09:07:47.078Z,22.60
2023-05-21T09:08:59.744Z,22.60
2023-05-21T09:10:10.986Z,22.70
2023-05-21T09:11:14.150Z,22.70
2023-05-21T09:12:16.377Z,22.80
2023-05-21T09:13:19.513Z,22.70
2023-05-21T09:14:23.161Z,22.80
2023-05-21T09:15:25.284Z,22.80
2023-05-21T09:16:27.207Z,22.70
2023-05-21T09:17:28.939Z,22.70
2023-05-21T09:18:30.870Z,22.70
2023-05-21T09:19:32.733Z,22.70
2023-05-21T09:20:34.915Z,22.70
2023-05-21T09:21:39.055Z,22.70
2023-05-21T09:22:45.895Z,22.70
2023-05-21T09:23:48.117Z,22.70
2023-05-21T09:24:51.933Z,22.70
2023-05-21T09:25:54.698Z,22.70
2023-05-21T09:26:59.114Z,22.70
2023-05-21T09:28:00.824Z,22.70
2023-05-21T09:29:02.621Z,22.80
2023-05-21T09:30:06.647Z,22.80
2023-05-21T09:31:08.452Z,22.80
2023-05-21T09:32:10.323Z,23.00
2023-05-21T09:33:12.785Z,22.80
2023-05-21T09:34:14.779Z,22.90
2023-05-21T09:35:17.077Z,22.90
2023-05-21T09:36:22.267Z,23.00
2023-05-21T09:37:27.395Z,23.00
2023-05-21T09:38:30.411Z,23.00
2023-05-21T09:39:32.127Z,23.00
2023-05-21T09:40:35.704Z,23.00
2023-05-21T09:41:38.387Z,23.10
2023-05-21T09:42:41.015Z,23.10
2023-05-21T09:43:44.214Z,23.10
2023-05-21T09:44:47.222Z,23.10
2023-05-21T09:45:57.782Z,23.20
2023-05-21T09:47:02.420Z,23.20
2023-05-21T09:48:04.610Z,23.20
2023-05-21T09:49:06.477Z,23.20
2023-05-21T09:50:12.640Z,23.30
2023-05-21T09:51:21.474Z,23.30
2023-05-21T09:52:27.536Z,23.20
2023-05-21T09:53:29.725Z,23.30
2023-05-21T09:54:35.931Z,23.40
2023-05-21T09:55:37.733Z,23.40
2023-05-21T09:56:40.124Z,23.40
2023-05-21T09:57:50.692Z,23.50
2023-05-21T09:58:57.524Z,23.50
2023-05-21T09:59:59.371Z,23.50
2023-05-21T10:01:01.177Z,23.50
2023-05-21T10:02:03.313Z,23.50
2023-05-21T10:03:09.981Z,23.50
2023-05-21T10:04:12.437Z,23.50
2023-05-21T10:05:15.543Z,23.50
2023-05-21T10:06:18.805Z,23.60
2023-05-21T10:07:25.979Z,23.60
2023-05-21T10:08:34.313Z,23.70
2023-05-21T10:09:36.482Z,23.70
2023-05-21T10:10:40.581Z,23.70
2023-05-21T10:11:44.883Z,23.80
2023-05-21T10:12:48.231Z,23.80
2023-05-21T10:14:06.735Z,23.80
2023-05-21T10:15:11.117Z,23.90
2023-05-21T10:16:13.447Z,23.90
2023-05-21T10:17:16.213Z,24.00
2023-05-21T10:18:21.427Z,24.10
2023-05-21T10:19:24.972Z,24.10
2023-05-21T10:20:27.370Z,24.10
2023-05-21T10:21:31.223Z,24.20
2023-05-21T10:22:34.201Z,24.20
2023-05-21T10:23:37.776Z,24.30
2023-05-21T10:24:40.894Z,24.30
2023-05-21T10:25:43.136Z,24.30
2023-05-21T10:26:49.804Z,24.40
2023-05-21T10:27:57.423Z,24.40
2023-05-21T10:29:00.569Z,24.40
2023-05-21T10:30:04.329Z,24.40
2023-05-21T10:31:07.113Z,24.40
2023-05-21T10:32:09.075Z,24.40
2023-05-21T10:33:16.466Z,24.50
2023-05-21T10:34:19.421Z,24.30
2023-05-21T10:35:21.576Z,24.20
2023-05-21T10:36:25.377Z,24.30
2023-05-21T10:37:28.074Z,24.20
2023-05-21T10:38:31.987Z,24.30
2023-05-21T10:39:34.609Z,24.30
2023-05-21T10:40:36.763Z,24.30
2023-05-21T10:42:04.870Z,24.30
2023-05-21T10:43:25.041Z,24.30
2023-05-21T10:44:41.140Z,24.30
2023-05-21T10:46:04.656Z,24.30
2023-05-21T10:47:30.488Z,24.30
2023-05-21T10:49:07.391Z,24.30
2023-05-21T10:50:40.881Z,24.40
2023-05-21T10:52:12.985Z,24.30
2023-05-21T10:53:37.762Z,24.40
2023-05-21T10:54:52.890Z,24.50
2023-05-21T10:56:22.898Z,24.50
2023-05-21T10:57:53.662Z,24.50
2023-05-21T10:59:15.404Z,24.50
2023-05-21T11:00:18.162Z,24.50
2023-05-21T11:01:20.817Z,24.50
2023-05-21T11:02:27.557Z,24.60
2023-05-21T11:03:30.514Z,24.60
2023-05-21T11:04:33.128Z,24.60
2023-05-21T11:05:42.267Z,24.60
2023-05-21T11:06:48.776Z,24.70
2023-05-21T11:07:56.528Z,24.80
2023-05-21T11:09:12.812Z,24.80
2023-05-21T11:10:45.284Z,24.80
2023-05-21T11:12:10.845Z,24.90
2023-05-21T11:13:14.409Z,24.90
2023-05-21T11:14:39.932Z,24.90
2023-05-21T11:16:02.702Z,24.90
2023-05-21T11:17:16.746Z,24.90
2023-05-21T11:18:18.662Z,24.90
2023-05-21T11:19:20.585Z,24.90
2023-05-21T11:20:22.848Z,25.00
2023-05-21T11:21:28.542Z,25.00
2023-05-21T11:22:30.529Z,25.00
2023-05-21T11:23:51.181Z,25.00
2023-05-21T11:24:54.942Z,25.10
2023-05-21T11:26:02.823Z,25.10
2023-05-21T11:27:05.688Z,25.10
2023-05-21T11:28:09.537Z,25.10
2023-05-21T11:29:11.657Z,25.10
2023-05-21T11:30:18.767Z,25.10
2023-05-21T11:31:27.852Z,25.10
2023-05-21T11:32:29.821Z,25.20
2023-05-21T11:33:34.813Z,25.20
2023-05-21T11:34:39.750Z,25.20
2023-05-21T11:36:03.446Z,25.30
2023-05-21T11:37:25.107Z,25.30
2023-05-21T11:38:34.079Z,25.30
2023-05-21T11:39:40.396Z,25.30
2023-05-21T11:40:56.788Z,25.30
2023-05-21T11:42:04.524Z,25.30
2023-05-21T11:43:06.528Z,25.30
2023-05-21T11:44:10.128Z,25.30
2023-05-21T11:45:11.870Z,25.40
2023-05-21T11:46:14.667Z,25.40
2023-05-21T11:47:18.407Z,25.40
2023-05-21T11:48:26.884Z,25.40
2023-05-21T11:49:29.944Z,25.50
2023-05-21T11:50:33.908Z,25.50
2023-05-21T11:51:40.603Z,25.50
2023-05-21T11:52:45.368Z,25.60
2023-05-21T11:53:48.971Z,25.60
2023-05-21T11:54:56.837Z,25.70
2023-05-21T11:56:01.986Z,25.70
2023-05-21T11:57:09.907Z,25.70
2023-05-21T11:58:14.435Z,25.70
2023-05-21T11:59:18.494Z,25.70
2023-05-21T12:00:21.945Z,25.80
2023-05-21T12:01:24.559Z,25.80
2023-05-21T12:02:31.220Z,25.90
2023-05-21T12:03:35.373Z,25.90
2023-05-21T12:04:37.215Z,25.90
2023-05-21T12:05:48.954Z,25.90
2023-05-21T12:06:51.925Z,25.90
2023-05-21T12:07:54.802Z,25.90
2023-05-21T12:08:58.475Z,25.90
2023-05-21T12:10:01.015Z,25.90
2023-05-21T12:11:02.879Z,25.90
2023-05-21T12:12:06.192Z,25.90
2023-05-21T12:13:08.045Z,26.00
2023-05-21T12:14:12.738Z,26.00
2023-05-21T12:15:15.968Z,26.00
2023-05-21T12:16:17.769Z,26.00
2023-05-21T12:17:23.979Z,26.00
2023-05-21T12:18:26.811Z,26.00
2023-05-21T12:19:29.378Z,26.00
2023-05-21T12:20:31.288Z,26.10
2023-05-21T12:21:33.968Z,26.10
2023-05-21T12:22:35.956Z,26.10
2023-05-21T12:23:37.752Z,26.00
2023-05-21T12:24:39.624Z,26.00
2023-05-21T12:25:41.545Z,26.10
2023-05-21T12:26:45.908Z,26.00
2023-05-21T12:27:49.838Z,26.10
2023-05-21T12:28:56.304Z,26.00
2023-05-21T12:29:58.237Z,26.00
2023-05-21T12:31:00.060Z,26.00
2023-05-21T12:32:03.045Z,26.00
2023-05-21T12:33:05.634Z,26.00
2023-05-21T12:34:08.259Z,25.90
2023-05-21T12:35:20.035Z,25.90
2023-05-21T12:36:29.959Z,25.90
2023-05-21T12:37:32.620Z,25.90
2023-05-21T12:38:34.400Z,25.90
2023-05-21T12:39:40.400Z,25.90
2023-05-21T12:40:43.686Z,25.90
2023-05-21T12:41:45.471Z,26.00
2023-05-21T12:42:47.321Z,25.90
2023-05-21T12:43:50.785Z,25.90
2023-05-21T12:44:53.775Z,25.90
2023-05-21T12:45:55.622Z,26.00
2023-05-21T12:46:58.568Z,26.00
2023-05-21T12:48:06.948Z,26.00
2023-05-21T12:49:55.985Z,25.90
2023-05-21T12:50:59.850Z,25.90
2023-05-21T12:52:21.456Z,25.90
2023-05-21T12:53:23.212Z,25.90
2023-05-21T12:54:33.220Z,25.90
2023-05-21T12:55:35.981Z,25.90
2023-05-21T12:56:45.733Z,26.00
2023-05-21T12:57:47.866Z,26.00
2023-05-21T12:58:50.482Z,26.00
2023-05-21T12:59:59.764Z,26.10
2023-05-21T13:01:03.832Z,26.10
2023-05-21T13:02:07.398Z,26.10
2023-05-21T13:03:09.248Z,26.10
2023-05-21T13:04:11.170Z,26.10
2023-05-21T13:05:18.677Z,26.10
2023-05-21T13:06:20.410Z,26.20
2023-05-21T13:07:22.633Z,26.20
2023-05-21T13:08:24.360Z,26.20
2023-05-21T13:09:26.040Z,26.30
2023-05-21T13:10:27.816Z,26.30
2023-05-21T13:11:29.519Z,26.40
2023-05-21T13:12:32.973Z,26.40
2023-05-21T13:13:34.708Z,26.50
2023-05-21T13:14:36.741Z,26.50
2023-05-21T13:15:38.466Z,26.60
2023-05-21T13:16:40.184Z,26.60
2023-05-21T13:17:42.030Z,26.70
2023-05-21T13:18:43.807Z,26.90
2023-05-21T13:20:06.086Z,26.90
2023-05-21T13:21:07.796Z,26.90
2023-05-21T13:22:10.398Z,27.00
2023-05-21T13:23:12.876Z,27.20
2023-05-21T13:24:14.718Z,27.10
2023-05-21T13:25:21.605Z,27.10
2023-05-21T13:26:23.530Z,27.20
2023-05-21T13:27:25.269Z,27.20
2023-05-21T13:28:27.150Z,27.30
2023-05-21T13:29:29.020Z,27.40
2023-05-21T13:30:30.926Z,27.40
2023-05-21T13:31:32.634Z,27.40
2023-05-21T13:32:34.716Z,27.40
2023-05-21T13:33:36.619Z,27.40
2023-05-21T13:34:38.346Z,27.40
2023-05-21T13:35:40.128Z,27.50
2023-05-21T13:36:44.230Z,27.50
2023-05-21T13:37:46.310Z,27.50
2023-05-21T13:38:47.998Z,27.60
2023-05-21T13:39:49.778Z,27.60
2023-05-21T13:40:51.530Z,27.60
2023-05-21T13:41:53.449Z,27.80